Map

Track Data

SID SEASON NUMBER BASIN SUBBASIN NAME ISO_TIME NATURE LAT LON WMO_WIND WMO_PRES WMO_AGENCY TRACK_TYPE DIST2LAND LANDFALL IFLAG USA_AGENCY USA_ATCF_ID USA_LAT USA_LON USA_RECORD USA_STATUS USA_WIND USA_PRES USA_SSHS USA_R34_NE USA_R34_SE USA_R34_SW USA_R34_NW USA_R50_NE USA_R50_SE USA_R50_SW USA_R50_NW USA_R64_NE USA_R64_SE USA_R64_SW USA_R64_NW USA_POCI USA_ROCI USA_RMW USA_EYE TOKYO_LAT TOKYO_LON TOKYO_GRADE TOKYO_WIND TOKYO_PRES TOKYO_R50_DIR TOKYO_R50_LONG TOKYO_R50_SHORT TOKYO_R30_DIR TOKYO_R30_LONG TOKYO_R30_SHORT TOKYO_LAND CMA_LAT CMA_LON CMA_CAT CMA_WIND CMA_PRES HKO_LAT HKO_LON HKO_CAT HKO_WIND HKO_PRES NEWDELHI_LAT NEWDELHI_LON NEWDELHI_GRADE NEWDELHI_WIND NEWDELHI_PRES NEWDELHI_CI NEWDELHI_DP NEWDELHI_POCI REUNION_LAT REUNION_LON REUNION_TYPE REUNION_WIND REUNION_PRES REUNION_TNUM REUNION_CI REUNION_RMW REUNION_R34_NE REUNION_R34_SE REUNION_R34_SW REUNION_R34_NW REUNION_R50_NE REUNION_R50_SE REUNION_R50_SW REUNION_R50_NW REUNION_R64_NE REUNION_R64_SE REUNION_R64_SW REUNION_R64_NW BOM_LAT BOM_LON BOM_TYPE BOM_WIND BOM_PRES BOM_TNUM BOM_CI BOM_RMW BOM_R34_NE BOM_R34_SE BOM_R34_SW BOM_R34_NW BOM_R50_NE BOM_R50_SE BOM_R50_SW BOM_R50_NW BOM_R64_NE BOM_R64_SE BOM_R64_SW BOM_R64_NW BOM_ROCI BOM_POCI BOM_EYE BOM_POS_METHOD BOM_PRES_METHOD NADI_LAT NADI_LON NADI_CAT NADI_WIND NADI_PRES WELLINGTON_LAT WELLINGTON_LON WELLINGTON_WIND WELLINGTON_PRES DS824_LAT DS824_LON DS824_STAGE DS824_WIND DS824_PRES TD9636_LAT TD9636_LON TD9636_STAGE TD9636_WIND TD9636_PRES TD9635_LAT TD9635_LON TD9635_WIND TD9635_PRES TD9635_ROCI NEUMANN_LAT NEUMANN_LON NEUMANN_CLASS NEUMANN_WIND NEUMANN_PRES MLC_LAT MLC_LON MLC_CLASS MLC_WIND MLC_PRES USA_GUST BOM_GUST BOM_GUST_PER REUNION_GUST REUNION_GUST_PER USA_SEAHGT USA_SEARAD_NE USA_SEARAD_SE USA_SEARAD_SW USA_SEARAD_NW STORM_SPEED STORM_DIR
1995113N06169 1995 19 WP MM NOT_NAMED 1995-04-23 00:00:00 NR 5.50000 169.000 spur-merge 1804 1804 O_____________ jtwc_wp WP021995 5.50000 169.000 15 -1 1 270
1995113N06169 1995 19 WP MM NOT_NAMED 1995-04-23 03:00:00 NR 5.50000 168.950 spur-merge 1804 1798 P_____________ WP021995 5.50000 168.950 15 -1 1 270
1995113N06169 1995 19 WP MM NOT_NAMED 1995-04-23 06:00:00 NR 5.50000 168.900 spur-merge 1798 1798 O_____________ jtwc_wp WP021995 5.50000 168.900 15 -1 1 270
1995113N06169 1995 19 WP MM NOT_NAMED 1995-04-23 09:00:00 NR 5.50000 168.850 spur-merge 1798 1792 P_____________ WP021995 5.50000 168.850 15 -1 1 270
1995113N06169 1995 19 WP MM NOT_NAMED 1995-04-23 12:00:00 NR 5.50000 168.800 spur-merge 1792 1792 O_____________ jtwc_wp WP021995 5.50000 168.800 15 -1 1 274
1995113N06169 1995 19 WP MM NOT_NAMED 1995-04-23 15:00:00 NR 5.50750 168.750 spur-merge 1792 1787 P_____________ WP021995 5.50750 168.750 15 -1 1 270
1995113N06169 1995 19 WP MM NOT_NAMED 1995-04-23 18:00:00 NR 5.50000 168.700 spur-merge 1787 1787 O_____________ jtwc_wp WP021995 5.50000 168.700 15 -1 1 239
1995113N06169 1995 19 WP MM NOT_NAMED 1995-04-23 21:00:00 NR 5.45000 168.650 spur-merge 1787 1772 P_____________ WP021995 5.45000 168.650 15 -1 1 223
1995113N06169 1995 19 WP MM NOT_NAMED 1995-04-24 00:00:00 NR 5.40000 168.600 spur-merge 1772 1772 O_____________ jtwc_wp WP021995 5.40000 168.600 15 -1 1 239
1995113N06169 1995 19 WP MM NOT_NAMED 1995-04-24 03:00:00 NR 5.39250 168.550 spur-merge 1772 1766 P_____________ WP021995 5.39250 168.550 15 -1 1 270
1995113N06169 1995 19 WP MM NOT_NAMED 1995-04-24 06:00:00 NR 5.40000 168.500 spur-merge 1766 1766 O_____________ jtwc_wp WP021995 5.40000 168.500 15 -1 1 279
1995113N06169 1995 19 WP MM NOT_NAMED 1995-04-24 09:00:00 NR 5.40750 168.450 spur-merge 1766 1761 P_____________ WP021995 5.40750 168.450 15 -1 1 270
1995113N06169 1995 19 WP MM NOT_NAMED 1995-04-24 12:00:00 NR 5.40000 168.400 spur-merge 1761 1761 O_____________ jtwc_wp WP021995 5.40000 168.400 15 -1 1 239
1995113N06169 1995 19 WP MM NOT_NAMED 1995-04-24 15:00:00 NR 5.35000 168.350 spur-merge 1761 1746 P_____________ WP021995 5.35000 168.350 15 -1 1 223
1995113N06169 1995 19 WP MM NOT_NAMED 1995-04-24 18:00:00 NR 5.30000 168.300 spur-merge 1746 1746 O_____________ jtwc_wp WP021995 5.30000 168.300 15 -1 1 237
1995113N06169 1995 19 WP MM NOT_NAMED 1995-04-24 21:00:00 NR 5.29250 168.258 spur-merge 1746 1741 P_____________ WP021995 5.29250 168.258 15 -1 1 270
1995113N06169 1995 19 WP MM NOT_NAMED 1995-04-25 00:00:00 NR 5.30000 168.200 spur-merge 1741 1735 O_____________ jtwc_wp WP021995 5.30000 168.200 15 -1 2 276
1995113N06169 1995 19 WP MM NOT_NAMED 1995-04-25 03:00:00 NR 5.30750 168.108 spur-merge 1735 1730 P_____________ WP021995 5.30750 168.108 15 -1 2 270
1995113N06169 1995 19 WP MM NOT_NAMED 1995-04-25 06:00:00 NR 5.30000 168.000 spur-merge 1730 1725 O_____________ jtwc_wp WP021995 5.30000 168.000 15 -1 2 254
1995113N06169 1995 19 WP MM NOT_NAMED 1995-04-25 09:00:00 NR 5.25000 167.900 spur-merge 1725 1710 P_____________ WP021995 5.25000 167.900 15 -1 2 243
1995113N06169 1995 19 WP MM NOT_NAMED 1995-04-25 12:00:00 NR 5.20000 167.800 spur-merge 1710 1705 O_____________ jtwc_wp WP021995 5.20000 167.800 15 -1 2 254
1995113N06169 1995 19 WP MM NOT_NAMED 1995-04-25 15:00:00 NR 5.19250 167.700 spur-merge 1705 1700 P_____________ WP021995 5.19250 167.700 15 -1 2 270
1995113N06169 1995 19 WP MM NOT_NAMED 1995-04-25 18:00:00 NR 5.20000 167.600 spur-merge 1700 1695 O_____________ jtwc_wp WP021995 5.20000 167.600 15 -1 2 275
1995113N06169 1995 19 WP MM NOT_NAMED 1995-04-25 21:00:00 NR 5.20749 167.515 spur-merge 1695 1690 P_____________ WP021995 5.20749 167.515 17 -1 2 270
1995113N06169 1995 19 WP MM NOT_NAMED 1995-04-26 00:00:00 NR 5.20000 167.400 spur-merge 1690 1681 O_____________ jtwc_wp WP021995 5.20000 167.400 20 -1 3 261
1995113N06169 1995 19 WP MM NOT_NAMED 1995-04-26 03:00:00 NR 5.15751 167.207 spur-merge 1681 1661 P_____________ WP021995 5.15751 167.207 20 -1 4 256
1995113N06169 1995 19 WP MM NOT_NAMED 1995-04-26 06:00:00 NR 5.10000 167.000 spur-merge 1661 1647 O_____________ jtwc_wp WP021995 5.10000 167.000 20 -1 4 252
1995113N06169 1995 19 WP MM NOT_NAMED 1995-04-26 09:00:00 NR 5.04249 166.850 spur-merge 1647 1638 P_____________ WP021995 5.04249 166.850 20 -1 3 251
1995113N06169 1995 19 WP MM NOT_NAMED 1995-04-26 12:00:00 NR 5.00000 166.700 spur-merge 1638 1629 O_____________ jtwc_wp WP021995 5.00000 166.700 20 -1 3 260
1995113N06169 1995 19 WP MM NOT_NAMED 1995-04-26 15:00:00 NR 4.98499 166.515 spur-merge 1629 1620 P_____________ WP021995 4.98499 166.515 20 -1 4 270
1995113N06169 1995 19 WP MM NOT_NAMED 1995-04-26 18:00:00 NR 5.00000 166.300 spur-merge 1620 1612 O_____________ jtwc_wp WP021995 5.00000 166.300 20 -1 5 278
1995113N06169 1995 19 WP MM NOT_NAMED 1995-04-26 21:00:00 NR 5.05000 166.058 spur-merge 1612 1611 P_____________ WP021995 5.05000 166.058 22 -1 5 281
1995113N06169 1995 19 WP MM NOT_NAMED 1995-04-27 00:00:00 NR 5.10000 165.800 spur-merge 1611 1603 O_____________ jtwc_wp WP021995 5.10000 165.800 25 -1 5 276
1995113N06169 1995 19 WP MM NOT_NAMED 1995-04-27 03:00:00 NR 5.09998 165.557 spur-merge 1603 1593 P_____________ WP021995 5.09998 165.557 25 -1 5 270
1995113N06169 1995 19 WP MM NOT_NAMED 1995-04-27 06:00:00 NR 5.10000 165.300 spur-merge 1593 1582 O_____________ jtwc_wp WP021995 5.10000 165.300 25 -1 6 274
1995113N06169 1995 19 WP MM NOT_NAMED 1995-04-27 09:00:00 NR 5.14252 164.985 spur-merge 1582 1581 P_____________ WP021995 5.14252 164.985 25 -1 6 280
1995113N06169 1995 19 WP MM NOT_NAMED 1995-04-27 12:00:00 NR 5.20000 164.700 spur-merge 1581 1572 O_____________ jtwc_wp WP021995 5.20000 164.700 25 -1 5 283
1995113N06169 1995 19 WP MM NOT_NAMED 1995-04-27 15:00:00 NR 5.24998 164.520 spur-merge 1572 1572 P_____________ WP021995 5.24998 164.520 25 -1 3 289
1995113N06169 1995 19 WP MM NOT_NAMED 1995-04-27 18:00:00 NR 5.30000 164.400 spur-merge 1578 1573 O_____________ jtwc_wp WP021995 5.30000 164.400 25 -1 3 295
1995113N06169 1995 19 WP MM NOT_NAMED 1995-04-27 21:00:00 NR 5.35749 164.292 spur-merge 1583 1579 P_____________ WP021995 5.35749 164.292 25 -1 2 297
1995113N06169 1995 19 WP MM NOT_NAMED 1995-04-28 00:00:00 NR 5.40000 164.200 spur-merge 1579 1575 O_____________ jtwc_wp WP021995 5.40000 164.200 25 -1 2 283
1995113N06169 1995 19 WP MM NOT_NAMED 1995-04-28 03:00:00 NR 5.40000 164.100 spur-merge 1575 1571 P_____________ WP021995 5.40000 164.100 25 -1 2 270
1995113N06169 1995 19 WP MM NOT_NAMED 1995-04-28 06:00:00 NR 5.40000 164.000 spur-merge 1571 1567 O_____________ jtwc_wp WP021995 5.40000 164.000 25 -1 2 282
1995113N06169 1995 19 WP MM NOT_NAMED 1995-04-28 09:00:00 NR 5.44250 163.900 spur-merge 1567 1567 P_____________ WP021995 5.44250 163.900 25 -1 2 297
1995113N06169 1995 19 WP MM NOT_NAMED 1995-04-28 12:00:00 NR 5.50000 163.800 spur-merge 1573 1568 O_____________ jtwc_wp WP021995 5.50000 163.800 25 -1 2 299
1995113N06169 1995 19 WP MM NOT_NAMED 1995-04-28 15:00:00 NR 5.55000 163.700 spur-merge 1568 1568 P_____________ WP021995 5.55000 163.700 27 -1 2 297
1995113N06169 1995 19 WP MM NOT_NAMED 1995-04-28 18:00:00 NR 5.60000 163.600 spur-merge 1570 1564 O_____________ jtwc_wp WP021995 5.60000 163.600 30 -1 2 299
1995113N06169 1995 19 WP MM NOT_NAMED 1995-04-28 21:00:00 NR 5.65750 163.500 spur-merge 1573 1566 P_____________ WP021995 5.65750 163.500 32 -1 2 297
1995113N06169 1995 19 WP MM NOT_NAMED 1995-04-29 00:00:00 NR 5.70000 163.400 spur-merge 1566 1560 O_____________ jtwc_wp WP021995 5.70000 163.400 35 0 2 282
1995113N06169 1995 19 WP MM NOT_NAMED 1995-04-29 03:00:00 NR 5.70000 163.292 spur-merge 1560 1553 P_____________ WP021995 5.70000 163.292 35 0 2 270
1995113N06169 1995 19 WP MM NOT_NAMED 1995-04-29 06:00:00 NR 5.70000 163.200 spur-merge 1553 1553 O_____________ jtwc_wp WP021995 5.70000 163.200 35 0 2 289
1995113N06169 1995 19 WP MM NOT_NAMED 1995-04-29 09:00:00 NR 5.74999 163.150 spur-merge 1553 1553 P_____________ WP021995 5.73750 163.140 35 0 1 317
1995113N06169 1995 19 WP MM NOT_NAMED 1995-04-29 12:00:00 NR 5.80000 163.100 spur-merge 1556 O_____________ jtwc_wp WP021995 5.80000 163.100 35 0 1 309

Digital Typhoon Data and Search

About IBTrACS Database

This database is a web-friendly format of International Best Track Archive for Climate Stewardship (IBTrACS), a global best track data archive curated by NOAA dating back to 1842.

Updated: 2021-11-26